This is the latest recevied weather packets stored in our database for station/object KE8WAY. If no packets are shown the sender has not sent any weather packets the latest 10 day(s).
| Time | Temp. | Humidity | Pressure | Rain* | Wind** | Luminosity | Snow |
|---|---|---|---|---|---|---|---|
| 1777659891 | 6.11° C | 84% | 1013.7 hPa | 0 mm | - | 238 W/m² | - |
| 1777659588 | 6.11° C | 82% | 1013.7 hPa | 0 mm | - | 170 W/m² | - |
| 1777659285 | 6.11° C | 83% | 1013.7 hPa | 0 mm | - | 227 W/m² | - |
| 1777658982 | 6.11° C | 84% | 1013.6 hPa | 0 mm | - | 170 W/m² | - |
| 1777658679 | 6.11° C | 85% | 1013.5 hPa | 0 mm | - | 184 W/m² | - |
| 1777658375 | 5.56° C | 86% | 1013.5 hPa | 0 mm | - | 229 W/m² | - |
| 1777658073 | 5.56° C | 87% | 1013.6 hPa | 0 mm | - | 164 W/m² | - |
| 1777657769 | 5.56° C | 88% | 1013.4 hPa | 0 mm | - | 223 W/m² | - |
| 1777657467 | 6.11° C | 90% | 1013.3 hPa | 0 mm | - | 187 W/m² | - |
| 1777657164 | 5.56° C | 89% | 1013.4 hPa | 1.27 mm | - | 102 W/m² | - |
| 1777656862 | 5.56° C | 88% | 1013.4 hPa | 1.27 mm | - | 88 W/m² | - |
| 1777656557 | 5.56° C | 88% | 1013.3 hPa | 1.27 mm | - | 63 W/m² | - |
| 1777656253 | 7.22° C | 82% | 1013 hPa | 0 mm | - | 34 W/m² | - |
| 1777655948 | 7.22° C | 79% | 1012.9 hPa | 0 mm | - | 79 W/m² | - |
| 1777655645 | 7.22° C | 83% | 1013.1 hPa | 0 mm | - | 161 W/m² | - |
| 1777655342 | 7.22° C | 80% | 1013.2 hPa | 0 mm | - | 246 W/m² | - |
| 1777655039 | 6.67° C | 83% | 1013.1 hPa | 0 mm | - | 216 W/m² | - |
| 1777654736 | 6.67° C | 84% | 1013 hPa | 0 mm | - | 111 W/m² | - |
| 1777654434 | 6.67° C | 84% | 1012.9 hPa | 0 mm | - | 138 W/m² | - |
| 1777654131 | 6.67° C | 85% | 1013 hPa | 0 mm | - | 126 W/m² | - |
| 1777653829 | 6.67° C | 83% | 1013.1 hPa | 0 mm | - | 122 W/m² | - |
| 1777653525 | 6.67° C | 85% | 1012.8 hPa | 0 mm | - | 121 W/m² | - |
| 1777653221 | 6.67° C | 85% | 1012.9 hPa | 0 mm | - | 126 W/m² | - |
| 1777652919 | 6.67° C | 84% | 1012.8 hPa | 0 mm | - | 85 W/m² | - |
| 1777652615 | 6.11° C | 85% | 1012.7 hPa | 1.78 mm | - | 117 W/m² | - |
* Rain latest hour (hover to see other rain measurements)
** Current wind speed in m/s (hover to see current wind gust speed)